createdAt,value
2017-11-22T00:00:10.181Z,0
2017-11-22T00:01:19.018Z,0
2017-11-22T00:02:27.994Z,0
2017-11-22T00:03:36.825Z,0
2017-11-22T00:04:45.943Z,0
2017-11-22T00:05:54.774Z,0
2017-11-22T00:07:03.605Z,0
2017-11-22T00:08:12.587Z,0
2017-11-22T00:09:21.420Z,0
2017-11-22T00:10:30.897Z,0
2017-11-22T00:11:39.725Z,0
2017-11-22T00:12:48.557Z,0
2017-11-22T00:13:57.787Z,0
2017-11-22T00:15:06.617Z,0
2017-11-22T00:16:15.448Z,0
2017-11-22T00:17:24.294Z,0
2017-11-22T00:18:33.113Z,0
2017-11-22T00:19:42.241Z,0
2017-11-22T00:20:51.072Z,0
2017-11-22T00:21:59.904Z,0
2017-11-22T00:23:09.020Z,0
2017-11-22T00:24:17.847Z,0
2017-11-22T00:25:26.977Z,0
2017-11-22T00:26:35.806Z,0
2017-11-22T00:27:44.633Z,0
2017-11-22T00:28:53.467Z,0
2017-11-22T00:30:03.109Z,0
2017-11-22T00:31:12.035Z,0
2017-11-22T00:32:20.867Z,0
2017-11-22T00:33:29.697Z,0
2017-11-22T00:34:38.535Z,0
2017-11-22T00:35:47.359Z,0
2017-11-22T00:36:56.289Z,0
2017-11-22T00:38:05.127Z,0
2017-11-22T00:39:13.949Z,0
2017-11-22T00:40:22.784Z,0
2017-11-22T00:41:31.611Z,0
2017-11-22T00:42:40.438Z,0
2017-11-22T00:43:49.267Z,0
2017-11-22T00:44:58.098Z,0
2017-11-22T00:46:06.927Z,0
2017-11-22T00:47:15.760Z,0
2017-11-22T00:48:25.114Z,0
2017-11-22T00:49:33.943Z,0
2017-11-22T00:50:42.771Z,0
2017-11-22T00:51:51.600Z,0
2017-11-22T00:53:00.428Z,0
2017-11-22T00:54:09.309Z,0
2017-11-22T00:55:18.138Z,0
2017-11-22T00:56:26.967Z,0
2017-11-22T00:57:35.797Z,0
2017-11-22T00:58:44.629Z,0
2017-11-22T00:59:53.611Z,0
2017-11-22T01:01:02.442Z,0
2017-11-22T01:02:11.269Z,0
2017-11-22T01:03:20.103Z,0
2017-11-22T01:04:28.934Z,0
2017-11-22T01:05:37.917Z,0
2017-11-22T01:06:46.754Z,0
2017-11-22T01:07:55.586Z,0
2017-11-22T01:09:04.419Z,0
2017-11-22T01:10:13.529Z,0
2017-11-22T01:11:22.658Z,0
2017-11-22T01:12:31.502Z,0
2017-11-22T01:13:40.316Z,0
2017-11-22T01:14:49.148Z,0
2017-11-22T01:15:58.263Z,0
2017-11-22T01:17:07.242Z,0
2017-11-22T01:18:16.072Z,0
2017-11-22T01:19:24.900Z,0
2017-11-22T01:20:33.731Z,0
2017-11-22T01:21:42.565Z,0
2017-11-22T01:22:51.442Z,0
2017-11-22T01:24:00.560Z,0
2017-11-22T01:25:09.389Z,0
2017-11-22T01:26:18.217Z,0
2017-11-22T01:27:27.049Z,0
2017-11-22T01:28:36.030Z,0
2017-11-22T01:29:44.859Z,0
2017-11-22T01:30:53.687Z,0
2017-11-22T01:32:02.518Z,0
2017-11-22T01:33:11.351Z,0
2017-11-22T01:34:20.181Z,0
2017-11-22T01:35:29.008Z,0
2017-11-22T01:36:37.835Z,0
2017-11-22T01:37:46.665Z,0
2017-11-22T01:38:55.778Z,0
2017-11-22T01:40:04.606Z,0
2017-11-22T01:41:13.436Z,0
2017-11-22T01:42:22.266Z,0
2017-11-22T01:43:31.097Z,0
2017-11-22T01:44:39.925Z,0
2017-11-22T01:45:49.085Z,0
2017-11-22T01:46:57.914Z,0
2017-11-22T01:48:06.747Z,0
2017-11-22T01:49:15.578Z,0
2017-11-22T01:50:24.410Z,0
2017-11-22T01:51:33.499Z,0
2017-11-22T01:52:42.610Z,0
2017-11-22T01:53:51.724Z,0
2017-11-22T01:55:00.553Z,0
2017-11-22T01:56:09.383Z,0
2017-11-22T01:57:18.315Z,0
2017-11-22T01:58:27.145Z,0
2017-11-22T01:59:35.975Z,0
2017-11-22T02:00:44.803Z,0
2017-11-22T02:01:53.630Z,0
2017-11-22T02:03:02.609Z,0
2017-11-22T02:04:11.444Z,0
2017-11-22T02:05:20.265Z,0
2017-11-22T02:06:29.093Z,0
2017-11-22T02:07:37.921Z,0
2017-11-22T02:08:46.899Z,0
2017-11-22T02:09:55.727Z,0
2017-11-22T02:11:04.554Z,0
2017-11-22T02:12:13.387Z,0
2017-11-22T02:13:22.216Z,0
2017-11-22T02:14:31.045Z,0
2017-11-22T02:15:39.877Z,0
2017-11-22T02:16:48.986Z,0
2017-11-22T02:17:57.812Z,0
2017-11-22T02:19:06.648Z,0
2017-11-22T02:20:15.853Z,0
2017-11-22T02:21:24.692Z,0
2017-11-22T02:22:33.520Z,0
2017-11-22T02:23:42.349Z,0
2017-11-22T02:24:51.189Z,0
2017-11-22T02:26:00.299Z,0
2017-11-22T02:27:09.129Z,0
2017-11-22T02:28:17.959Z,0
2017-11-22T02:29:26.789Z,0
2017-11-22T02:30:35.625Z,0
2017-11-22T02:31:44.854Z,0
2017-11-22T02:32:53.686Z,0
2017-11-22T02:34:03.083Z,0
2017-11-22T02:35:11.911Z,0
2017-11-22T02:36:20.765Z,0
2017-11-22T02:37:30.094Z,0
2017-11-22T02:38:38.928Z,0
2017-11-22T02:39:47.752Z,0
2017-11-22T02:40:56.581Z,0
2017-11-22T02:42:05.412Z,0
2017-11-22T02:43:14.491Z,0
2017-11-22T02:44:23.322Z,0
2017-11-22T02:45:32.150Z,0
2017-11-22T02:46:40.978Z,0
2017-11-22T02:47:49.805Z,0
2017-11-22T02:48:59.017Z,0
2017-11-22T02:50:07.854Z,0
2017-11-22T02:51:16.962Z,0
2017-11-22T02:52:25.788Z,0
2017-11-22T02:53:34.624Z,0
2017-11-22T02:54:43.946Z,0
2017-11-22T02:55:52.775Z,0
2017-11-22T02:57:01.604Z,0
2017-11-22T02:58:10.431Z,0
2017-11-22T02:59:19.264Z,0
2017-11-22T03:00:28.570Z,0
2017-11-22T03:01:37.398Z,0
2017-11-22T03:02:46.227Z,0
2017-11-22T03:03:55.058Z,0
2017-11-22T03:05:03.885Z,0
2017-11-22T03:06:12.716Z,0
2017-11-22T03:07:21.543Z,0
2017-11-22T03:08:30.370Z,0
2017-11-22T03:09:39.199Z,0
2017-11-22T03:10:48.030Z,0
2017-11-22T03:11:57.136Z,0
2017-11-22T03:13:05.965Z,0
2017-11-22T03:14:14.794Z,0
2017-11-22T03:15:23.902Z,0
2017-11-22T03:16:32.735Z,0
2017-11-22T03:17:41.863Z,0
2017-11-22T03:18:50.975Z,0
2017-11-22T03:19:59.803Z,0
2017-11-22T03:21:08.914Z,0
2017-11-22T03:22:17.743Z,0
2017-11-22T03:23:26.852Z,0
2017-11-22T03:24:36.238Z,0
2017-11-22T03:25:45.353Z,0
2017-11-22T03:26:54.184Z,0
2017-11-22T03:28:03.293Z,0
2017-11-22T03:29:12.277Z,0
2017-11-22T03:30:21.110Z,0
2017-11-22T03:31:29.943Z,0
2017-11-22T03:32:38.772Z,0
2017-11-22T03:33:47.883Z,0
2017-11-22T03:34:56.811Z,0
2017-11-22T03:36:05.641Z,0
2017-11-22T03:37:14.749Z,0
2017-11-22T03:38:24.133Z,0
2017-11-22T03:39:32.963Z,0
2017-11-22T03:40:41.795Z,0
2017-11-22T03:41:50.623Z,0
2017-11-22T03:42:59.732Z,0
2017-11-22T03:44:08.562Z,0
2017-11-22T03:45:17.397Z,0
2017-11-22T03:46:26.272Z,0
2017-11-22T03:47:35.100Z,0
2017-11-22T03:48:43.934Z,0
2017-11-22T03:49:52.757Z,0
2017-11-22T03:51:01.592Z,0
2017-11-22T03:52:10.416Z,0
2017-11-22T03:53:19.244Z,0
2017-11-22T03:54:28.076Z,0
2017-11-22T03:55:36.907Z,0
2017-11-22T03:56:45.735Z,0
2017-11-22T03:57:54.616Z,0
2017-11-22T03:59:03.444Z,0
2017-11-22T04:00:12.326Z,0
2017-11-22T04:01:21.157Z,0
2017-11-22T04:02:30.268Z,0
2017-11-22T04:03:39.096Z,0
2017-11-22T04:04:47.926Z,0
2017-11-22T04:05:57.036Z,0
2017-11-22T04:07:05.865Z,0
2017-11-22T04:08:14.695Z,0
2017-11-22T04:09:23.576Z,0
2017-11-22T04:10:32.607Z,0
2017-11-22T04:11:41.437Z,0
2017-11-22T04:12:50.265Z,0
2017-11-22T04:13:59.114Z,0
2017-11-22T04:15:08.074Z,0
2017-11-22T04:16:16.904Z,0
2017-11-22T04:17:25.734Z,0
2017-11-22T04:18:34.564Z,0
2017-11-22T04:19:43.395Z,0
2017-11-22T04:20:52.225Z,0
2017-11-22T04:22:01.055Z,0
2017-11-22T04:23:09.884Z,0
2017-11-22T04:24:18.724Z,0
2017-11-22T04:25:27.548Z,0
2017-11-22T04:26:36.653Z,0
2017-11-22T04:27:45.772Z,0
2017-11-22T04:28:54.606Z,0
2017-11-22T04:30:03.714Z,0
2017-11-22T04:31:12.543Z,0
2017-11-22T04:32:21.521Z,0
2017-11-22T04:33:30.354Z,0
2017-11-22T04:34:39.184Z,0
2017-11-22T04:35:48.012Z,0
2017-11-22T04:36:56.838Z,0
2017-11-22T04:38:05.718Z,0
2017-11-22T04:39:14.549Z,0
2017-11-22T04:40:23.406Z,0
2017-11-22T04:41:32.210Z,0
2017-11-22T04:42:41.039Z,0
2017-11-22T04:43:50.269Z,0
2017-11-22T04:44:59.103Z,0
2017-11-22T04:46:07.926Z,0
2017-11-22T04:47:16.755Z,0
2017-11-22T04:48:25.584Z,0
2017-11-22T04:49:34.464Z,0
2017-11-22T04:50:43.297Z,0
2017-11-22T04:51:52.123Z,0
2017-11-22T04:53:00.953Z,0
2017-11-22T04:54:09.782Z,0
2017-11-22T04:55:18.887Z,0
2017-11-22T04:56:27.993Z,0
2017-11-22T04:57:36.824Z,0
2017-11-22T04:58:45.653Z,0
2017-11-22T04:59:54.485Z,0
2017-11-22T05:01:03.564Z,0
2017-11-22T05:02:12.394Z,0
2017-11-22T05:03:21.225Z,0
2017-11-22T05:04:30.606Z,0
2017-11-22T05:05:39.434Z,0
2017-11-22T05:06:48.262Z,0
2017-11-22T05:07:57.089Z,0
2017-11-22T05:09:05.919Z,0
2017-11-22T05:10:14.750Z,0
2017-11-22T05:11:23.578Z,0
2017-11-22T05:12:32.509Z,0
2017-11-22T05:13:41.340Z,0
2017-11-22T05:14:50.448Z,0
2017-11-22T05:15:59.280Z,0
2017-11-22T05:17:08.389Z,0
2017-11-22T05:18:17.219Z,0
2017-11-22T05:19:26.049Z,0
2017-11-22T05:20:34.875Z,0
2017-11-22T05:21:43.704Z,0
2017-11-22T05:22:52.536Z,0
2017-11-22T05:24:01.515Z,0
2017-11-22T05:25:10.342Z,0
2017-11-22T05:26:19.172Z,0
2017-11-22T05:27:28.002Z,0
2017-11-22T05:28:36.832Z,0
2017-11-22T05:29:45.663Z,0
2017-11-22T05:30:54.498Z,0
2017-11-22T05:32:03.327Z,0
2017-11-22T05:33:12.154Z,0
2017-11-22T05:34:20.986Z,0
2017-11-22T05:35:29.913Z,0
2017-11-22T05:36:38.743Z,0
2017-11-22T05:37:47.571Z,0
2017-11-22T05:38:56.497Z,0
2017-11-22T05:40:05.620Z,0
2017-11-22T05:41:14.547Z,0
2017-11-22T05:42:23.376Z,0
2017-11-22T05:43:32.205Z,0
2017-11-22T05:44:41.313Z,0
2017-11-22T05:45:50.141Z,0
2017-11-22T05:46:59.120Z,0
2017-11-22T05:48:08.230Z,0
2017-11-22T05:49:17.344Z,0
2017-11-22T05:50:26.445Z,0
2017-11-22T05:51:35.273Z,0
2017-11-22T05:52:44.155Z,0
2017-11-22T05:53:52.983Z,0
2017-11-22T05:55:01.819Z,0
2017-11-22T05:56:10.641Z,0
2017-11-22T05:57:19.475Z,0
2017-11-22T05:58:28.353Z,0
2017-11-22T05:59:37.183Z,0
2017-11-22T06:00:46.013Z,0
2017-11-22T06:03:03.679Z,0
2017-11-22T06:04:12.508Z,0
2017-11-22T06:05:21.341Z,0
2017-11-22T06:06:30.171Z,0
2017-11-22T06:07:39.002Z,0
2017-11-22T06:08:47.829Z,0
2017-11-22T06:09:56.812Z,0
2017-11-22T06:11:05.642Z,0
2017-11-22T06:12:14.472Z,0
2017-11-22T06:13:23.300Z,0
2017-11-22T06:14:32.131Z,0
2017-11-22T06:15:41.060Z,0
2017-11-22T06:16:49.890Z,0
2017-11-22T06:17:58.719Z,0
2017-11-22T06:19:07.550Z,0
2017-11-22T06:20:16.381Z,0
2017-11-22T06:21:25.212Z,0
2017-11-22T06:22:34.041Z,0
2017-11-22T06:23:42.871Z,0
2017-11-22T06:24:51.705Z,0
2017-11-22T06:26:00.822Z,0
2017-11-22T06:27:09.934Z,0
2017-11-22T06:28:18.773Z,0
2017-11-22T06:29:27.603Z,0
2017-11-22T06:30:36.435Z,0
2017-11-22T06:31:45.263Z,0
2017-11-22T06:32:54.095Z,0
2017-11-22T06:34:02.926Z,0
2017-11-22T06:35:11.765Z,0
2017-11-22T06:36:20.622Z,0
2017-11-22T06:37:29.564Z,0
2017-11-22T06:38:38.599Z,0
2017-11-22T06:39:47.688Z,0
2017-11-22T06:40:56.546Z,0
2017-11-22T06:42:05.420Z,0
2017-11-22T06:43:14.246Z,0
2017-11-22T06:44:23.075Z,0
2017-11-22T06:45:31.909Z,0
2017-11-22T06:46:40.740Z,0
2017-11-22T06:47:49.571Z,0
2017-11-22T06:48:58.405Z,0
2017-11-22T06:50:07.235Z,0
2017-11-22T06:51:16.065Z,0
2017-11-22T06:52:24.906Z,0
2017-11-22T06:53:33.730Z,0
2017-11-22T06:54:42.564Z,0
2017-11-22T06:55:51.394Z,0
2017-11-22T06:57:00.225Z,0
2017-11-22T06:58:09.156Z,0
2017-11-22T06:59:17.992Z,0
2017-11-22T07:00:27.101Z,0
2017-11-22T07:01:35.936Z,0
2017-11-22T07:02:44.799Z,0
2017-11-22T07:03:53.628Z,0
2017-11-22T07:05:02.487Z,0
2017-11-22T07:06:11.316Z,0
2017-11-22T07:07:20.149Z,0
2017-11-22T07:08:28.979Z,0
2017-11-22T07:09:37.911Z,0
2017-11-22T07:10:46.893Z,0
2017-11-22T07:11:55.725Z,0
2017-11-22T07:13:04.553Z,0
2017-11-22T07:14:13.388Z,0
2017-11-22T07:15:22.523Z,0
2017-11-22T07:16:31.354Z,0
2017-11-22T07:17:40.184Z,0
2017-11-22T07:18:49.014Z,0
2017-11-22T07:19:57.846Z,0
2017-11-22T07:21:06.952Z,0
2017-11-22T07:22:15.792Z,0
2017-11-22T07:23:24.617Z,0
2017-11-22T07:24:33.447Z,5
2017-11-22T07:25:42.377Z,5
2017-11-22T07:26:51.208Z,5
2017-11-22T07:28:00.317Z,5
2017-11-22T07:29:09.150Z,5
2017-11-22T07:30:17.980Z,5
2017-11-22T07:31:26.812Z,5
2017-11-22T07:32:36.209Z,5
2017-11-22T07:33:45.038Z,5
2017-11-22T07:34:53.869Z,5
2017-11-22T07:36:02.701Z,5
2017-11-22T07:37:11.537Z,5
2017-11-22T07:38:20.384Z,5
2017-11-22T07:39:29.204Z,5
2017-11-22T07:40:38.044Z,5
2017-11-22T07:41:46.869Z,5
2017-11-22T07:42:55.702Z,5
2017-11-22T07:44:04.536Z,5
2017-11-22T07:45:13.366Z,5
2017-11-22T07:46:22.296Z,5
2017-11-22T07:47:31.691Z,5
2017-11-22T07:48:40.802Z,5
2017-11-22T07:49:49.922Z,5
2017-11-22T07:50:58.753Z,5
2017-11-22T07:52:07.734Z,10
2017-11-22T07:53:16.567Z,10
2017-11-22T07:54:25.401Z,10
2017-11-22T07:55:34.227Z,10
2017-11-22T07:56:43.061Z,10
2017-11-22T07:57:52.042Z,10
2017-11-22T07:59:00.871Z,10
2017-11-22T08:00:09.704Z,10
2017-11-22T08:01:18.537Z,10
2017-11-22T08:02:27.651Z,10
2017-11-22T08:03:36.485Z,15
2017-11-22T08:04:45.308Z,10
2017-11-22T08:05:54.142Z,15
2017-11-22T08:07:02.975Z,15
2017-11-22T08:08:11.813Z,15
2017-11-22T08:09:20.971Z,15
2017-11-22T08:10:29.804Z,15
2017-11-22T08:11:38.632Z,15
2017-11-22T08:12:47.462Z,15
2017-11-22T08:13:56.297Z,20
2017-11-22T08:15:05.327Z,20
2017-11-22T08:16:14.157Z,20
2017-11-22T08:17:22.985Z,20
2017-11-22T08:18:31.818Z,20
2017-11-22T08:19:40.647Z,15
2017-11-22T08:20:49.630Z,20
2017-11-22T08:21:58.458Z,20
2017-11-22T08:23:07.289Z,20
2017-11-22T08:24:16.120Z,20
2017-11-22T08:25:24.950Z,20
2017-11-22T08:26:33.783Z,20
2017-11-22T08:27:42.622Z,20
2017-11-22T08:28:51.439Z,20
2017-11-22T08:30:00.270Z,20
2017-11-22T08:31:09.103Z,25
2017-11-22T08:32:17.986Z,20
2017-11-22T08:33:26.819Z,25
2017-11-22T08:34:35.664Z,25
2017-11-22T08:35:44.488Z,25
2017-11-22T08:36:53.311Z,25
2017-11-22T08:38:02.292Z,25
2017-11-22T08:39:11.124Z,30
2017-11-22T08:40:19.955Z,25
2017-11-22T08:41:28.786Z,35
2017-11-22T08:42:37.899Z,30
2017-11-22T08:43:46.783Z,35
2017-11-22T08:44:55.615Z,35
2017-11-22T08:46:04.761Z,35
2017-11-22T08:47:14.145Z,35
2017-11-22T08:48:22.985Z,30
2017-11-22T08:49:31.959Z,35
2017-11-22T08:50:40.789Z,35
2017-11-22T08:51:49.621Z,40
2017-11-22T08:52:58.452Z,40
2017-11-22T08:54:07.287Z,40
2017-11-22T08:55:16.414Z,45
2017-11-22T08:56:25.243Z,45
2017-11-22T08:57:34.077Z,45
2017-11-22T08:58:42.910Z,45
2017-11-22T08:59:51.744Z,45
2017-11-22T09:01:00.726Z,45
2017-11-22T09:02:09.559Z,35
2017-11-22T09:03:18.394Z,40
2017-11-22T09:04:27.227Z,40
2017-11-22T09:05:36.060Z,35
2017-11-22T09:06:44.942Z,30
2017-11-22T09:07:53.774Z,30
2017-11-22T09:09:02.614Z,30
2017-11-22T09:10:11.439Z,35
2017-11-22T09:11:20.267Z,40
2017-11-22T09:12:29.249Z,40
2017-11-22T09:13:38.081Z,45
2017-11-22T09:14:46.913Z,40
2017-11-22T09:15:55.742Z,40
2017-11-22T09:17:04.574Z,45
2017-11-22T09:18:13.461Z,45
2017-11-22T09:19:22.283Z,40
2017-11-22T09:20:31.117Z,50
2017-11-22T09:21:39.949Z,45
2017-11-22T09:22:48.787Z,50
2017-11-22T09:23:57.765Z,45
2017-11-22T09:25:06.597Z,45
2017-11-22T09:26:15.422Z,50
2017-11-22T09:27:24.255Z,50
2017-11-22T09:28:33.088Z,45
2017-11-22T09:29:42.063Z,50
2017-11-22T09:30:50.894Z,55
2017-11-22T09:32:00.007Z,50
2017-11-22T09:33:08.836Z,50
2017-11-22T09:34:17.948Z,45
2017-11-22T09:35:26.789Z,50
2017-11-22T09:36:35.615Z,50
2017-11-22T09:37:44.735Z,60
2017-11-22T09:38:53.567Z,60
2017-11-22T09:40:02.397Z,65
2017-11-22T09:41:11.380Z,80
2017-11-22T09:42:20.210Z,65
2017-11-22T09:43:29.047Z,60
2017-11-22T09:44:37.875Z,70
2017-11-22T09:45:46.981Z,65
2017-11-22T09:46:55.864Z,65
2017-11-22T09:48:04.697Z,70
2017-11-22T09:49:13.530Z,60
2017-11-22T09:50:22.363Z,65
2017-11-22T09:51:31.195Z,80
2017-11-22T09:52:40.325Z,75
2017-11-22T09:53:49.157Z,85
2017-11-22T09:54:57.988Z,80
2017-11-22T09:56:07.097Z,75
2017-11-22T09:57:15.934Z,90
2017-11-22T09:58:24.911Z,105
2017-11-22T09:59:33.743Z,105
2017-11-22T10:00:42.573Z,110
2017-11-22T10:01:51.405Z,100
2017-11-22T10:03:00.234Z,110
2017-11-22T10:04:09.344Z,100
2017-11-22T10:05:18.175Z,100
2017-11-22T10:06:27.005Z,95
2017-11-22T10:07:35.839Z,90
2017-11-22T10:08:44.671Z,80
2017-11-22T10:09:53.607Z,90
2017-11-22T10:11:02.434Z,80
2017-11-22T10:12:11.261Z,85
2017-11-22T10:13:20.095Z,75
2017-11-22T10:14:28.925Z,80
2017-11-22T10:15:37.758Z,70
2017-11-22T10:16:46.585Z,70
2017-11-22T10:17:55.417Z,70
2017-11-22T10:19:04.253Z,80
2017-11-22T10:20:13.081Z,60
2017-11-22T10:21:22.318Z,70
2017-11-22T10:22:31.148Z,65
2017-11-22T10:23:40.260Z,60
2017-11-22T10:24:49.091Z,75
2017-11-22T10:25:57.918Z,65
2017-11-22T10:27:06.952Z,70
2017-11-22T10:28:15.781Z,75
2017-11-22T10:29:24.610Z,65
2017-11-22T10:30:33.731Z,75
2017-11-22T10:31:42.556Z,85
2017-11-22T10:32:51.434Z,80
2017-11-22T10:34:00.276Z,80
2017-11-22T10:35:09.097Z,80
2017-11-22T10:36:17.927Z,100
2017-11-22T10:37:26.759Z,95
2017-11-22T10:38:35.590Z,85
2017-11-22T10:39:44.417Z,90
2017-11-22T10:40:53.250Z,95
2017-11-22T10:42:02.078Z,85
2017-11-22T10:43:10.912Z,75
2017-11-22T10:44:20.143Z,90
2017-11-22T10:45:28.973Z,70
2017-11-22T10:46:37.807Z,75
2017-11-22T10:47:46.637Z,80
2017-11-22T10:48:55.468Z,90
2017-11-22T10:50:04.360Z,90
2017-11-22T10:51:13.458Z,85
2017-11-22T10:52:22.288Z,90
2017-11-22T10:53:31.117Z,100
2017-11-22T10:54:39.948Z,110
2017-11-22T10:55:48.778Z,110
2017-11-22T10:56:57.667Z,105
2017-11-22T10:58:06.842Z,95
2017-11-22T10:59:15.725Z,95
2017-11-22T11:00:24.590Z,80
2017-11-22T11:01:33.599Z,80
2017-11-22T11:02:42.460Z,75
2017-11-22T11:03:51.323Z,85
2017-11-22T11:05:00.189Z,85
2017-11-22T11:06:09.326Z,90
2017-11-22T11:07:18.566Z,85
2017-11-22T11:08:27.428Z,80
2017-11-22T11:09:36.289Z,70
2017-11-22T11:10:45.150Z,70
2017-11-22T11:11:54.011Z,70
2017-11-22T11:13:02.922Z,70
2017-11-22T11:14:11.784Z,80
2017-11-22T11:15:20.924Z,75
2017-11-22T11:16:29.786Z,70
2017-11-22T11:17:38.647Z,75
2017-11-22T11:18:47.605Z,80
2017-11-22T11:19:56.750Z,90
2017-11-22T11:21:05.610Z,85
2017-11-22T11:22:14.468Z,80
2017-11-22T11:23:23.330Z,75
2017-11-22T11:24:32.523Z,85
2017-11-22T11:25:41.385Z,85
2017-11-22T11:26:50.243Z,85
2017-11-22T11:27:59.105Z,75
2017-11-22T11:29:07.964Z,80
2017-11-22T11:30:16.875Z,80
2017-11-22T11:31:25.737Z,75
2017-11-22T11:32:34.601Z,80
2017-11-22T11:33:43.461Z,80
2017-11-22T11:34:52.324Z,80
2017-11-22T11:36:01.466Z,85
2017-11-22T11:37:10.321Z,90
2017-11-22T11:38:19.184Z,90
2017-11-22T11:39:28.041Z,90
2017-11-22T11:40:37.202Z,85
2017-11-22T11:41:46.197Z,90
2017-11-22T11:42:55.086Z,95
2017-11-22T11:44:03.919Z,90
2017-11-22T11:45:12.780Z,85
2017-11-22T11:46:21.640Z,85
2017-11-22T11:47:30.902Z,75
2017-11-22T11:48:39.766Z,80
2017-11-22T11:49:48.625Z,80
2017-11-22T11:50:57.485Z,90
2017-11-22T11:52:06.635Z,85
2017-11-22T11:53:15.500Z,75
2017-11-22T11:54:24.640Z,80
2017-11-22T11:55:33.504Z,70
2017-11-22T11:56:42.362Z,70
2017-11-22T11:57:51.236Z,75
2017-11-22T11:59:00.232Z,70
2017-11-22T12:00:09.095Z,70
2017-11-22T12:01:17.955Z,75
2017-11-22T12:02:26.816Z,75
2017-11-22T12:03:35.676Z,75
2017-11-22T12:04:45.122Z,75
2017-11-22T12:05:53.981Z,80
2017-11-22T12:07:03.138Z,80
2017-11-22T12:08:11.998Z,80
2017-11-22T12:09:20.862Z,85
2017-11-22T12:10:29.724Z,80
2017-11-22T12:11:38.586Z,90
2017-11-22T12:12:47.445Z,85
2017-11-22T12:13:56.310Z,90
2017-11-22T12:15:05.271Z,90
2017-11-22T12:16:14.286Z,85
2017-11-22T12:17:23.144Z,80
2017-11-22T12:18:32.008Z,70
2017-11-22T12:19:41.150Z,70
2017-11-22T12:20:50.016Z,70
2017-11-22T12:21:59.123Z,70
2017-11-22T12:23:07.992Z,70
2017-11-22T12:24:16.853Z,60
2017-11-22T12:25:25.716Z,65
2017-11-22T12:26:34.860Z,60
2017-11-22T12:27:44.071Z,60
2017-11-22T12:28:52.936Z,60
2017-11-22T12:30:01.801Z,60
2017-11-22T12:31:10.656Z,60
2017-11-22T12:32:19.516Z,60
2017-11-22T12:33:28.679Z,60
2017-11-22T12:34:37.820Z,65
2017-11-22T12:35:46.680Z,65
2017-11-22T12:36:55.538Z,60
2017-11-22T12:38:04.401Z,60
2017-11-22T12:39:13.428Z,55
2017-11-22T12:40:22.275Z,60
2017-11-22T12:41:31.423Z,65
2017-11-22T12:42:40.283Z,65
2017-11-22T12:43:49.141Z,60
2017-11-22T12:44:58.106Z,60
2017-11-22T12:46:06.966Z,55
2017-11-22T12:47:15.827Z,55
2017-11-22T12:48:24.694Z,55
2017-11-22T12:49:33.553Z,55
2017-11-22T12:50:42.415Z,60
2017-11-22T12:51:51.278Z,55
2017-11-22T12:53:00.138Z,55
2017-11-22T12:54:09.282Z,55
2017-11-22T12:55:18.141Z,50
2017-11-22T12:56:27.386Z,50
2017-11-22T12:57:36.253Z,50
2017-11-22T12:58:45.107Z,55
2017-11-22T12:59:53.968Z,60
2017-11-22T13:01:02.830Z,60
2017-11-22T13:02:11.942Z,60
2017-11-22T13:03:20.804Z,60
2017-11-22T13:04:29.666Z,65
2017-11-22T13:05:38.528Z,70
2017-11-22T13:06:47.389Z,65
2017-11-22T13:07:56.651Z,60
2017-11-22T13:09:05.563Z,45
2017-11-22T13:10:14.425Z,40
2017-11-22T13:11:23.285Z,45
2017-11-22T13:12:32.148Z,45
2017-11-22T13:13:41.007Z,45
2017-11-22T13:14:50.149Z,45
2017-11-22T13:15:59.010Z,50
2017-11-22T13:17:07.871Z,50
2017-11-22T13:18:16.735Z,45
2017-11-22T13:19:25.641Z,55
2017-11-22T13:20:34.504Z,55
2017-11-22T13:21:43.366Z,55
2017-11-22T13:22:52.227Z,55
2017-11-22T13:24:01.089Z,55
2017-11-22T13:25:10.002Z,60
2017-11-22T13:26:18.859Z,70
2017-11-22T13:27:27.722Z,60
2017-11-22T13:28:36.582Z,70
2017-11-22T13:29:45.447Z,80
2017-11-22T13:30:54.355Z,60
2017-11-22T13:32:03.220Z,60
2017-11-22T13:33:12.371Z,65
2017-11-22T13:34:21.220Z,70
2017-11-22T13:35:30.080Z,70
2017-11-22T13:36:39.247Z,65
2017-11-22T13:37:48.398Z,65
2017-11-22T13:38:57.259Z,65
2017-11-22T13:40:06.119Z,70
2017-11-22T13:41:14.981Z,70
2017-11-22T13:42:24.374Z,85
2017-11-22T13:43:33.240Z,80
2017-11-22T13:44:42.103Z,90
2017-11-22T13:45:50.964Z,85
2017-11-22T13:46:59.821Z,100
2017-11-22T13:48:08.801Z,90
2017-11-22T13:49:17.659Z,90
2017-11-22T13:50:26.520Z,80
2017-11-22T13:51:35.394Z,85
2017-11-22T13:52:44.266Z,80
2017-11-22T13:53:53.143Z,85
2017-11-22T13:55:02.314Z,80
2017-11-22T13:56:11.468Z,85
2017-11-22T13:57:20.340Z,80
2017-11-22T13:58:29.499Z,110
2017-11-22T13:59:38.360Z,115
2017-11-22T14:00:47.228Z,135
2017-11-22T14:01:56.081Z,125
2017-11-22T14:03:04.945Z,115
2017-11-22T14:04:13.810Z,120
2017-11-22T14:05:22.822Z,125
2017-11-22T14:06:31.684Z,155
2017-11-22T14:07:40.547Z,150
2017-11-22T14:08:49.409Z,145
2017-11-22T14:09:58.269Z,135
2017-11-22T14:11:07.134Z,120
2017-11-22T14:12:15.991Z,130
2017-11-22T14:13:24.857Z,130
2017-11-22T14:14:33.730Z,120
2017-11-22T14:15:42.606Z,115
2017-11-22T14:16:51.469Z,160
2017-11-22T14:18:00.333Z,105
2017-11-22T14:19:09.192Z,130
2017-11-22T14:20:18.350Z,185
2017-11-22T14:21:27.199Z,185
2017-11-22T14:22:36.226Z,180
2017-11-22T14:23:45.072Z,180
2017-11-22T14:24:53.937Z,190
2017-11-22T14:26:03.084Z,150
2017-11-22T14:27:11.946Z,160
2017-11-22T14:28:21.211Z,160
2017-11-22T14:29:30.073Z,160
2017-11-22T14:30:39.221Z,140
2017-11-22T14:31:48.083Z,120
2017-11-22T14:32:56.943Z,120
2017-11-22T14:34:06.246Z,135
2017-11-22T14:35:15.107Z,135
2017-11-22T14:36:23.969Z,120
2017-11-22T14:37:32.830Z,125
2017-11-22T14:38:41.693Z,125
2017-11-22T14:39:50.703Z,110
2017-11-22T14:40:59.665Z,100
2017-11-22T14:42:08.530Z,100
2017-11-22T14:43:17.393Z,95
2017-11-22T14:44:26.263Z,90
2017-11-22T14:45:35.170Z,85
2017-11-22T14:46:44.033Z,80
2017-11-22T14:47:52.895Z,75
2017-11-22T14:49:01.857Z,75
2017-11-22T14:50:10.722Z,75
2017-11-22T14:51:19.867Z,75
2017-11-22T14:52:28.727Z,70
2017-11-22T14:53:37.589Z,70
2017-11-22T14:54:46.452Z,65
2017-11-22T14:55:55.313Z,65
2017-11-22T14:57:04.456Z,60
2017-11-22T14:58:13.319Z,60
2017-11-22T14:59:22.180Z,55
2017-11-22T15:00:31.045Z,55
2017-11-22T15:01:40.187Z,50
2017-11-22T15:02:49.050Z,45
2017-11-22T15:03:57.912Z,45
2017-11-22T15:05:07.059Z,40
2017-11-22T15:06:15.927Z,40
2017-11-22T15:07:24.787Z,35
2017-11-22T15:08:33.746Z,35
2017-11-22T15:09:42.609Z,30
2017-11-22T15:10:51.471Z,30
2017-11-22T15:12:00.331Z,25
2017-11-22T15:13:09.196Z,25
2017-11-22T15:14:18.211Z,25
2017-11-22T15:15:27.073Z,20
2017-11-22T15:16:36.223Z,20
2017-11-22T15:17:45.086Z,20
2017-11-22T15:18:54.232Z,15
2017-11-22T15:20:03.245Z,15
2017-11-22T15:21:12.106Z,15
2017-11-22T15:22:21.250Z,15
2017-11-22T15:23:30.112Z,15
2017-11-22T15:24:38.975Z,10
2017-11-22T15:25:47.924Z,10
2017-11-22T15:26:56.797Z,10
2017-11-22T15:28:06.068Z,10
2017-11-22T15:29:14.929Z,5
2017-11-22T15:30:23.790Z,5
2017-11-22T15:31:32.652Z,5
2017-11-22T15:32:41.509Z,5
2017-11-22T15:33:50.371Z,5
2017-11-22T15:34:59.232Z,5
2017-11-22T15:36:08.092Z,5
2017-11-22T15:37:16.972Z,0
2017-11-22T15:38:25.836Z,0
2017-11-22T15:39:34.696Z,0
2017-11-22T15:40:43.656Z,0
2017-11-22T15:41:52.810Z,0
2017-11-22T15:43:01.673Z,0
2017-11-22T15:44:10.815Z,0
2017-11-22T15:45:19.699Z,0
2017-11-22T15:46:28.841Z,0
2017-11-22T15:47:37.701Z,0
2017-11-22T15:48:46.562Z,0
2017-11-22T15:49:55.423Z,0
2017-11-22T15:51:04.335Z,0
2017-11-22T15:52:13.483Z,0
2017-11-22T15:53:22.633Z,0
2017-11-22T15:54:31.490Z,0
2017-11-22T15:55:40.403Z,0
2017-11-22T15:56:49.637Z,0
2017-11-22T15:57:58.498Z,0
2017-11-22T15:59:07.355Z,0
2017-11-22T16:00:16.499Z,0
2017-11-22T16:01:25.331Z,0
2017-11-22T16:02:34.312Z,0
2017-11-22T16:03:43.141Z,0
2017-11-22T16:04:51.976Z,0
2017-11-22T16:06:00.808Z,0
2017-11-22T16:07:09.639Z,0
2017-11-22T16:08:18.622Z,0
2017-11-22T16:09:27.450Z,0
2017-11-22T16:10:36.282Z,0
2017-11-22T16:11:45.116Z,0
2017-11-22T16:12:53.951Z,0
2017-11-22T16:14:02.783Z,0
2017-11-22T16:15:11.615Z,0
2017-11-22T16:16:20.445Z,0
2017-11-22T16:17:29.279Z,0
2017-11-22T16:18:38.114Z,0
2017-11-22T16:19:47.433Z,0
2017-11-22T16:20:56.271Z,0
2017-11-22T16:22:05.095Z,0
2017-11-22T16:23:13.932Z,0
2017-11-22T16:24:23.045Z,0
2017-11-22T16:25:31.879Z,0
2017-11-22T16:26:40.713Z,0
2017-11-22T16:27:49.821Z,0
2017-11-22T16:28:58.652Z,0
2017-11-22T16:30:07.483Z,0
2017-11-22T16:31:16.311Z,0
2017-11-22T16:32:25.139Z,0
2017-11-22T16:33:33.972Z,0
2017-11-22T16:34:42.805Z,0
2017-11-22T16:35:51.636Z,0
2017-11-22T16:37:00.618Z,0
2017-11-22T16:38:09.451Z,0
2017-11-22T16:39:18.290Z,0
2017-11-22T16:40:27.111Z,0